createdAt,value
2023-05-21T00:05:08.900Z,16.68
2023-05-21T00:33:52.962Z,16.45
2023-05-21T01:02:59.460Z,16.21
2023-05-21T01:32:28.045Z,15.79
2023-05-21T02:01:20.725Z,15.39
2023-05-21T02:30:12.802Z,14.99
2023-05-21T02:59:08.907Z,14.71
2023-05-21T03:28:12.586Z,14.51
2023-05-21T03:57:05.346Z,14.28
2023-05-21T04:26:01.378Z,14.26
2023-05-21T04:55:01.968Z,14.45
2023-05-21T05:24:00.846Z,15.1
2023-05-21T05:52:58.718Z,16.09
2023-05-21T06:22:00.286Z,17.1
2023-05-21T06:51:02.145Z,20.28
2023-05-21T07:20:05.850Z,20.83
2023-05-21T07:48:59.739Z,20.07
2023-05-21T08:17:45.673Z,20.89
2023-05-21T08:46:45.552Z,23.23
2023-05-21T09:15:22.753Z,24
2023-05-21T10:13:24.212Z,24.09
2023-05-21T10:42:02.632Z,24.45
2023-05-21T11:10:29.566Z,24.07
2023-05-21T11:39:19.089Z,24.63
2023-05-21T12:08:01.676Z,24.99
2023-05-21T12:36:45.126Z,25.26
2023-05-21T13:05:36.134Z,26.12
2023-05-21T13:34:06.373Z,26.67
2023-05-21T14:02:46.320Z,27.63
2023-05-21T14:31:21.300Z,28.12
2023-05-21T15:00:24.371Z,28.22
2023-05-21T15:28:39.636Z,28.26
2023-05-21T15:57:17.710Z,26.75
2023-05-21T16:25:40.443Z,25.66
2023-05-21T17:22:49.656Z,23.81
2023-05-21T17:51:25.211Z,23.26
2023-05-21T18:20:07.374Z,22.84
2023-05-21T18:48:27.328Z,21.96
2023-05-21T19:17:01.640Z,21.51
2023-05-21T19:45:52.572Z,20.79
2023-05-21T20:14:48.557Z,20.02
2023-05-21T20:43:50.344Z,19.33
2023-05-21T21:12:30.278Z,18.86
2023-05-21T21:41:08.715Z,18.3
2023-05-21T22:09:58.645Z,17.82
2023-05-21T22:38:25.448Z,17.93
2023-05-21T23:07:08.541Z,17.45
2023-05-21T23:35:35.280Z,17.22
